Aérodrome :
LOGIN :

S'inscrire | Disclaimer

   EN    FR    IT 

 










Légende :    VFR   VFR Marginal   IFR   IFR Intensif   IFR Très Intensif
Visi : 
Plafond : 
>= 8 km
>= 3000ft
5 à 8 km
1000 à 3000 ft
1500m à 5 km
500 à 1000 ft
800 à 1500m
200 à 500 ft
< 800m
< 200 ft
Symboles :   Orages  Brouillard  Fortes neiges  Fortes précipitations  Vent > 20 kt
SIGMETs :   Divers  Orages  Givrage  Turbulence  Onde Orograph.  Cendres Volcan.







- Altitude de l'aérodrome : 215 ft
- Code IATA : TAR


LIBG - Grottaglie Arpt. Taranto

DERNIER METAR :
  • 161750Z 23007KT 200V260 CAVOK 30/15 Q1011

METARs EXPIRÉS :
  • 161650Z 20006KT CAVOK 33/17 Q1011

TAF TAF LIBG
Valide du 16 à 18h jusqu'au 17 à 03h UTC


161700Z 1618/1703 18010KT CAVOK
BECMG 1618/1620 VRB05KT
Pas de NOTAMs connus pour ce terrain.
2 SIGMETs publiés pour la FIR Brindisi (LIBB) :
 
Givrage fort
LIBB SIGMET 7 VALID 161610/162010 LIIB
LIBB BRINDISI FIR SEV ICE FCST WI N4032 E01532 - N4157 E01601 - N4329 E01431 - N4332 E01320 - N4303 E01304 - N4125 E01429 - N4116 E01507 - N4032 E01532 ABV FL200 STNR NC=
Turbulence forte
LIBB SIGMET 6 VALID 161610/162010 LIIB
LIBB BRINDISI FIR SEV TURB FCST N OF LINE N4122 E01415 - N4216 E01657 ABV FL260 STNR NC=



MET'MAP, la Météo Aéronautique d'un coup d'oeil ! - Copyright ORBIFLY Décembre 2007 - Disclaimer

ORBIFLY MET'MAP TEAM :

Programmation & Développement : Alexandra Zaïnal
Conception & Développement : Baudouin d'Aumeries
Co-Programmation & Développement : Marc-Olivier Méhu
Soutien technique & logistique : Manuel Goepfert

Contact : metmap@orbifly.com




SOURCES & CREDITS :

   NOAA